Time;durP1;ratioP1;P1;durP2;ratioP2;P2;SDS_P1;SDS_P2;PMS_P1;PMS_P2;Temp;Humidity;BMP_temperature;BMP_pressure;BME280_temperature;BME280_humidity;BME280_pressure;Samples;Min_cycle;Max_cycle;Signal;HPM_P1;HPM_P2
2023/12/26 00:02:14;;;;;;;0.55;0.52;;;;;;;10.00;100.00;99574.22;4927183;29;20047;-84
2023/12/26 00:04:43;;;;;;;0.52;0.32;;;;;;;10.06;100.00;99567.13;4925589;29;20048;-85
2023/12/26 00:07:12;;;;;;;0.20;0.20;;;;;;;10.13;100.00;99567.81;4911303;29;20130;-86
2023/12/26 00:09:40;;;;;;;0.15;0.13;;;;;;;10.20;100.00;99552.84;4930502;29;20085;-85
2023/12/26 00:12:08;;;;;;;0.00;0.00;;;;;;;10.33;100.00;99538.53;4926513;29;20425;-85
2023/12/26 00:14:34;;;;;;;0.40;0.00;;;;;;;10.48;100.00;99541.69;4927235;29;20056;-85
2023/12/26 00:17:04;;;;;;;0.00;0.00;;;;;;;10.56;100.00;99535.34;4916427;29;20086;-85
2023/12/26 00:19:30;;;;;;;0.00;0.00;;;;;;;10.63;100.00;99522.94;4914249;29;20043;-85
2023/12/26 00:21:57;;;;;;;0.05;0.00;;;;;;;10.73;100.00;99520.94;4927000;29;20054;-85
2023/12/26 00:24:24;;;;;;;0.30;0.00;;;;;;;10.83;100.00;99511.91;4929155;29;20051;-86
2023/12/26 00:26:55;;;;;;;0.00;0.00;;;;;;;10.86;100.00;99529.28;4913515;29;20115;-85
2023/12/26 00:29:22;;;;;;;0.10;0.08;;;;;;;10.93;100.00;99552.66;4915993;29;20053;-85
2023/12/26 00:31:47;;;;;;;0.00;0.00;;;;;;;10.90;100.00;99542.28;4929304;29;20051;-83
2023/12/26 00:34:15;;;;;;;0.00;0.00;;;;;;;10.96;100.00;99549.09;4932506;29;20047;-84
2023/12/26 00:36:42;;;;;;;0.00;0.00;;;;;;;10.95;100.00;99529.06;4912300;29;20111;-84
2023/12/26 00:39:08;;;;;;;0.00;0.00;;;;;;;11.01;100.00;99493.97;4910422;29;20047;-85
2023/12/26 00:41:35;;;;;;;0.00;0.00;;;;;;;10.94;100.00;99477.59;4910389;29;20051;-84
2023/12/26 00:44:02;;;;;;;0.00;0.00;;;;;;;11.00;100.00;99485.28;4923322;29;20052;-84
2023/12/26 00:46:28;;;;;;;0.00;0.00;;;;;;;10.99;100.00;99493.16;4893527;29;20413;-84
2023/12/26 00:48:59;;;;;;;0.10;0.08;;;;;;;11.04;100.00;99499.09;4904031;29;20048;-84
2023/12/26 00:51:26;;;;;;;0.00;0.00;;;;;;;11.02;100.00;99493.06;4894782;29;20141;-86
2023/12/26 00:53:52;;;;;;;0.00;0.00;;;;;;;10.96;100.00;99493.25;4908830;29;20694;-85
2023/12/26 00:56:19;;;;;;;0.22;0.00;;;;;;;10.99;100.00;99486.16;4887410;29;20413;-84
2023/12/26 00:58:46;;;;;;;0.00;0.00;;;;;;;11.05;100.00;99485.97;4906517;29;20055;-85
2023/12/26 01:01:12;;;;;;;0.32;0.05;;;;;;;10.93;100.00;99487.19;4919012;29;20044;-85
2023/12/26 01:03:42;;;;;;;0.00;0.00;;;;;;;11.02;100.00;99477.38;4905821;29;20047;-85
2023/12/26 01:06:09;;;;;;;0.90;0.00;;;;;;;11.02;100.00;99493.06;4909255;29;20052;-84
2023/12/26 01:08:35;;;;;;;0.10;0.10;;;;;;;11.07;100.00;99480.72;4909443;29;20052;-85
2023/12/26 01:11:02;;;;;;;0.55;0.00;;;;;;;11.10;100.00;99483.22;4906675;29;20059;-83
2023/12/26 01:13:34;;;;;;;0.57;0.00;;;;;;;11.06;100.00;99477.22;4909884;29;20056;-85
2023/12/26 01:16:02;;;;;;;0.00;0.00;;;;;;;11.13;100.00;99474.41;4890309;29;20142;-85
2023/12/26 01:18:32;;;;;;;0.00;0.00;;;;;;;11.16;100.00;99466.44;4881375;29;20050;-85
2023/12/26 01:20:59;;;;;;;0.00;0.00;;;;;;;11.21;100.00;99480.28;4890625;29;20147;-84
2023/12/26 01:23:25;;;;;;;0.00;0.00;;;;;;;11.15;100.00;99496.19;4887720;29;20821;-85
2023/12/26 01:25:52;;;;;;;0.13;0.10;;;;;;;11.15;100.00;99497.03;4917535;29;20051;-85
2023/12/26 01:28:19;;;;;;;0.00;0.00;;;;;;;11.21;100.00;99544.00;4894227;29;20138;-85
2023/12/26 01:30:48;;;;;;;0.00;0.00;;;;;;;11.24;100.00;99543.06;4910795;29;20048;-83
2023/12/26 01:33:21;;;;;;;0.00;0.00;;;;;;;11.00;100.00;99521.06;4931460;29;20054;-84
2023/12/26 01:35:58;;;;;;;0.10;0.10;;;;;;;10.59;100.00;99545.72;4901988;29;20052;-84
2023/12/26 01:38:28;;;;;;;0.17;0.17;;;;;;;10.11;100.00;99546.06;4922516;29;20052;-83
2023/12/26 01:40:55;;;;;;;1.70;0.15;;;;;;;9.89;100.00;99554.41;4898861;29;20499;-82
2023/12/26 01:43:21;;;;;;;0.00;0.00;;;;;;;9.61;100.00;99564.69;4898733;29;20077;-83
2023/12/26 01:45:48;;;;;;;0.20;0.20;;;;;;;9.54;100.00;99569.19;4896725;29;20055;-84
2023/12/26 01:48:14;;;;;;;0.10;0.10;;;;;;;9.43;100.00;99571.16;4895998;29;20039;-83
2023/12/26 01:50:41;;;;;;;1.75;0.10;;;;;;;9.34;100.00;99576.59;4892778;29;20142;-85
2023/12/26 01:53:09;;;;;;;0.22;0.22;;;;;;;9.25;100.00;99578.47;4896084;29;20056;-83
2023/12/26 01:55:36;;;;;;;0.35;0.00;;;;;;;9.20;100.00;99580.31;4896063;29;20052;-84
2023/12/26 01:58:03;;;;;;;0.43;0.10;;;;;;;9.15;100.00;99570.88;4904339;29;20056;-84
2023/12/26 02:00:32;;;;;;;0.28;0.00;;;;;;;9.12;100.00;99568.34;4910698;29;20061;-85
2023/12/26 02:02:59;;;;;;;0.75;0.00;;;;;;;9.05;100.00;99576.28;4897765;29;20066;-84
2023/12/26 02:05:27;;;;;;;0.00;0.00;;;;;;;9.01;100.00;99561.59;4907446;29;20131;-84
2023/12/26 02:07:54;;;;;;;0.10;0.00;;;;;;;9.02;100.00;99580.72;4914905;29;20146;-83
2023/12/26 02:10:20;;;;;;;0.70;0.40;;;;;;;9.01;100.00;99566.81;4911393;29;20526;-83
2023/12/26 02:12:47;;;;;;;1.45;0.10;;;;;;;8.95;100.00;99564.31;4911663;29;20144;-84
2023/12/26 02:15:14;;;;;;;1.88;0.10;;;;;;;8.88;100.00;99576.63;4908157;29;20304;-84
2023/12/26 02:17:40;;;;;;;0.80;0.10;;;;;;;8.88;100.00;99588.81;4896549;29;20488;-83
2023/12/26 02:20:08;;;;;;;0.15;0.03;;;;;;;8.88;100.00;99581.84;4911219;29;20040;-84
2023/12/26 02:22:35;;;;;;;0.70;0.05;;;;;;;8.84;100.00;99593.22;4909547;29;20059;-84
2023/12/26 02:25:02;;;;;;;0.10;0.08;;;;;;;8.84;100.00;99574.97;4911828;29;20051;-83
2023/12/26 02:27:30;;;;;;;0.00;0.00;;;;;;;8.89;100.00;99575.75;4910719;29;20527;-85
2023/12/26 02:29:59;;;;;;;0.10;0.08;;;;;;;8.91;100.00;99575.72;4909831;29;20050;-84
2023/12/26 02:32:27;;;;;;;0.10;0.00;;;;;;;8.88;100.00;99574.00;4907248;29;20469;-85
2023/12/26 02:34:55;;;;;;;1.00;0.00;;;;;;;8.85;100.00;99578.41;4925537;29;20056;-85
2023/12/26 02:37:26;;;;;;;0.08;0.00;;;;;;;8.85;100.00;99589.75;4904730;29;20052;-83
2023/12/26 02:39:52;;;;;;;0.00;0.00;;;;;;;8.94;100.00;99573.03;4901308;29;20489;-83
2023/12/26 02:42:20;;;;;;;0.10;0.10;;;;;;;8.93;100.00;99587.00;4909894;29;20517;-83
2023/12/26 02:44:47;;;;;;;0.28;0.13;;;;;;;8.97;100.00;99585.16;4909962;29;20143;-84
2023/12/26 02:47:15;;;;;;;0.55;0.00;;;;;;;8.92;100.00;99580.03;4909446;29;20051;-84
2023/12/26 02:49:42;;;;;;;0.00;0.00;;;;;;;8.94;100.00;99575.63;4896164;29;20474;-84
2023/12/26 02:52:09;;;;;;;0.38;0.00;;;;;;;8.99;100.00;99584.22;4899131;29;20465;-84
2023/12/26 02:54:36;;;;;;;0.10;0.00;;;;;;;9.01;100.00;99578.97;4925626;29;20040;-85
2023/12/26 02:57:03;;;;;;;0.55;0.20;;;;;;;8.97;100.00;99582.53;4909899;29;20546;-85
2023/12/26 02:59:31;;;;;;;0.00;0.00;;;;;;;9.03;100.00;99587.66;4897169;29;20531;-84
2023/12/26 03:01:58;;;;;;;0.15;0.00;;;;;;;9.04;100.00;99563.28;4893704;29;20083;-84
2023/12/26 03:04:26;;;;;;;0.38;0.10;;;;;;;9.15;100.00;99573.50;4893445;29;20186;-84
2023/12/26 03:06:55;;;;;;;0.03;0.00;;;;;;;9.24;100.00;99555.00;4913372;29;20075;-84
2023/12/26 03:09:23;;;;;;;0.10;0.10;;;;;;;9.39;100.00;99566.91;4913888;29;20040;-83
2023/12/26 03:11:49;;;;;;;0.00;0.00;;;;;;;9.48;100.00;99563.22;4901342;29;20670;-84
2023/12/26 03:14:16;;;;;;;0.00;0.00;;;;;;;9.63;100.00;99572.47;4898204;29;20130;-84
2023/12/26 03:16:42;;;;;;;0.10;0.03;;;;;;;9.70;100.00;99556.63;4916221;29;20146;-83
2023/12/26 03:19:13;;;;;;;0.00;0.00;;;;;;;9.77;100.00;99555.56;4905699;29;20054;-84
2023/12/26 03:21:42;;;;;;;0.20;0.10;;;;;;;9.82;100.00;99538.94;4900472;29;20080;-84
2023/12/26 03:24:12;;;;;;;1.38;0.10;;;;;;;9.88;100.00;99534.44;4917976;29;20055;-84
2023/12/26 03:26:41;;;;;;;0.00;0.00;;;;;;;9.98;100.00;99535.03;4902282;29;20531;-82
2023/12/26 03:29:07;;;;;;;0.73;0.10;;;;;;;10.06;100.00;99527.00;4898302;29;20036;-84
2023/12/26 03:31:39;;;;;;;0.10;0.00;;;;;;;10.11;100.00;99522.53;4897709;29;20115;-83
2023/12/26 03:34:07;;;;;;;0.98;0.08;;;;;;;10.18;100.00;99526.72;4914993;29;20051;-84
2023/12/26 03:36:48;;;;;;;0.00;0.00;;;;;;;10.18;100.00;99521.50;4914894;29;20059;-83
2023/12/26 03:39:15;;;;;;;0.00;0.00;;;;;;;10.24;100.00;99518.69;4915999;29;20036;-84
2023/12/26 03:41:44;;;;;;;0.00;0.00;;;;;;;10.30;100.00;99517.69;4913366;29;20051;-84
2023/12/26 03:44:11;;;;;;;0.00;0.00;;;;;;;10.34;100.00;99508.88;4915278;29;20096;-85
2023/12/26 03:46:37;;;;;;;0.00;0.00;;;;;;;10.39;100.00;99521.84;4913740;29;20056;-84
2023/12/26 03:49:03;;;;;;;0.00;0.00;;;;;;;10.43;100.00;99528.72;4912085;29;20126;-82
2023/12/26 03:51:30;;;;;;;0.00;0.00;;;;;;;10.42;100.00;99540.09;4893494;29;20147;-86
2023/12/26 03:53:59;;;;;;;0.08;0.00;;;;;;;10.46;100.00;99533.03;4913940;29;20103;-84
2023/12/26 03:56:35;;;;;;;0.10;0.10;;;;;;;10.48;100.00;99525.97;4910580;29;20044;-83
2023/12/26 03:59:02;;;;;;;0.00;0.00;;;;;;;10.54;100.00;99536.28;4895895;29;20055;-85
2023/12/26 04:01:29;;;;;;;0.00;0.00;;;;;;;10.53;100.00;99563.34;4895522;29;20143;-85
2023/12/26 04:03:57;;;;;;;0.45;0.10;;;;;;;10.40;100.00;99613.41;4900727;29;20126;-83
2023/12/26 04:06:24;;;;;;;0.70;0.10;;;;;;;9.92;100.00;99605.78;4895002;29;20056;-84
2023/12/26 04:08:50;;;;;;;0.10;0.10;;;;;;;9.62;100.00;99609.94;4892560;29;20139;-83
2023/12/26 04:11:20;;;;;;;0.00;0.00;;;;;;;9.29;100.00;99628.06;4916057;29;20607;-84
2023/12/26 04:13:46;;;;;;;0.20;0.20;;;;;;;9.16;100.00;99636.13;4924396;29;20102;-85
2023/12/26 04:16:16;;;;;;;0.20;0.20;;;;;;;9.07;100.00;99629.34;4915916;29;20082;-84
2023/12/26 04:18:45;;;;;;;1.30;0.20;;;;;;;9.00;100.00;99647.75;4892893;29;20705;-83
2023/12/26 04:21:11;;;;;;;0.55;0.10;;;;;;;8.95;100.00;99653.06;4903790;29;20445;-84
2023/12/26 04:23:38;;;;;;;0.00;0.00;;;;;;;8.96;100.00;99651.28;4893262;29;20056;-84
2023/12/26 04:26:07;;;;;;;0.70;0.10;;;;;;;8.94;100.00;99644.38;4914083;29;20381;-84
2023/12/26 04:28:35;;;;;;;2.70;0.43;;;;;;;8.96;100.00;99644.34;4900443;29;20537;-84
2023/12/26 04:31:05;;;;;;;2.17;0.38;;;;;;;8.91;100.00;99646.16;4899617;29;20060;-83
2023/12/26 04:33:34;;;;;;;2.63;1.10;;;;;;;8.87;100.00;99650.59;4897797;29;20139;-84
2023/12/26 04:36:00;;;;;;;1.70;0.15;;;;;;;8.91;100.00;99654.00;4899507;29;20052;-85
2023/12/26 04:38:29;;;;;;;1.45;0.08;;;;;;;8.88;100.00;99659.28;4910157;29;20047;-84
2023/12/26 04:40:56;;;;;;;0.93;0.20;;;;;;;8.90;100.00;99666.22;4913036;29;20067;-84
2023/12/26 04:43:23;;;;;;;1.13;0.10;;;;;;;8.85;100.00;99661.94;4903438;29;20040;-82
2023/12/26 04:45:49;;;;;;;0.82;0.20;;;;;;;8.86;100.00;99663.66;4913666;29;20056;-84
2023/12/26 04:48:16;;;;;;;0.68;0.20;;;;;;;8.82;100.00;99656.78;4895848;29;20499;-84
2023/12/26 04:50:43;;;;;;;0.75;0.30;;;;;;;8.85;100.00;99670.66;4901755;29;20141;-84
2023/12/26 04:53:11;;;;;;;2.75;0.32;;;;;;;8.87;100.00;99675.84;4894921;29;20072;-83
2023/12/26 04:55:37;;;;;;;0.10;0.10;;;;;;;8.87;100.00;99675.84;4892166;29;20062;-83
2023/12/26 04:58:04;;;;;;;0.95;0.30;;;;;;;8.86;100.00;99672.34;4896583;29;20138;-84
2023/12/26 05:00:33;;;;;;;1.77;0.28;;;;;;;8.76;100.00;99674.28;4899050;29;20107;-83
2023/12/26 05:03:03;;;;;;;0.70;0.20;;;;;;;8.78;100.00;99688.13;4912101;29;20505;-85
2023/12/26 05:05:30;;;;;;;2.30;0.22;;;;;;;8.79;100.00;99681.19;4899600;29;20044;-84
2023/12/26 05:07:57;;;;;;;1.30;0.30;;;;;;;8.78;100.00;99687.28;4910807;29;20067;-84
2023/12/26 05:10:23;;;;;;;1.52;0.30;;;;;;;8.82;100.00;99694.16;4899944;29;20054;-84
2023/12/26 05:12:51;;;;;;;0.65;0.30;;;;;;;8.86;100.00;99695.84;4912963;29;20060;-84
2023/12/26 05:15:21;;;;;;;0.63;0.30;;;;;;;8.89;100.00;99706.25;4901550;29;20099;-84
2023/12/26 05:17:47;;;;;;;2.42;1.02;;;;;;;8.92;100.00;99700.09;4901926;29;20052;-84
2023/12/26 05:20:16;;;;;;;3.83;1.27;;;;;;;8.93;100.00;99710.50;4918666;29;20046;-83
2023/12/26 05:22:43;;;;;;;2.15;0.30;;;;;;;8.91;100.00;99717.50;4927794;29;20074;-83
2023/12/26 05:25:11;;;;;;;3.20;1.02;;;;;;;8.93;100.00;99712.28;4915455;29;20058;-84
2023/12/26 05:27:37;;;;;;;3.80;0.52;;;;;;;8.91;100.00;99714.03;4928994;29;20419;-83
2023/12/26 05:30:06;;;;;;;2.67;0.50;;;;;;;8.91;100.00;99721.88;4915806;29;20048;-83
2023/12/26 05:32:32;;;;;;;6.80;0.73;;;;;;;8.87;100.00;99736.72;4900438;29;20048;-83
2023/12/26 05:34:59;;;;;;;1.48;0.35;;;;;;;8.91;100.00;99740.13;4901617;29;20481;-85
2023/12/26 05:37:25;;;;;;;4.10;0.57;;;;;;;8.88;100.00;99735.81;4915651;29;20519;-84
2023/12/26 05:39:52;;;;;;;3.38;0.63;;;;;;;8.84;100.00;99739.38;4900613;29;20583;-84
2023/12/26 05:42:19;;;;;;;2.03;0.43;;;;;;;8.88;100.00;99740.19;4902560;29;20560;-84
2023/12/26 05:44:45;;;;;;;3.08;0.52;;;;;;;8.84;100.00;99746.31;4899990;29;20048;-83
2023/12/26 05:47:12;;;;;;;4.68;0.63;;;;;;;8.81;100.00;99746.38;4901771;29;20158;-85
2023/12/26 05:49:39;;;;;;;3.47;0.45;;;;;;;8.77;100.00;99746.44;4910685;29;20039;-84
2023/12/26 05:52:06;;;;;;;0.77;0.40;;;;;;;8.71;100.00;99756.97;4898064;29;20060;-84
2023/12/26 05:54:32;;;;;;;2.83;1.38;;;;;;;8.73;100.00;99757.81;4910793;29;20078;-85
2023/12/26 05:56:59;;;;;;;3.83;1.88;;;;;;;8.75;100.00;99753.44;4929614;29;20584;-85
2023/12/26 05:59:25;;;;;;;1.35;0.60;;;;;;;8.67;100.00;99754.44;4898418;29;20044;-85
2023/12/26 06:01:52;;;;;;;6.60;0.70;;;;;;;8.63;100.00;99758.84;4920641;29;20115;-83
2023/12/26 06:04:19;;;;;;;0.55;0.52;;;;;;;8.70;100.00;99767.44;4913478;29;20531;-84
2023/12/26 06:06:45;;;;;;;3.47;0.50;;;;;;;8.72;100.00;99768.25;4899610;29;20058;-85
2023/12/26 06:09:12;;;;;;;1.70;0.55;;;;;;;8.66;100.00;99776.22;4914922;29;20044;-84
2023/12/26 06:11:39;;;;;;;2.17;0.70;;;;;;;8.65;100.00;99795.34;4913236;29;20094;-83
2023/12/26 06:14:07;;;;;;;1.65;0.50;;;;;;;8.64;100.00;99799.69;4899992;29;20077;-83
2023/12/26 06:16:33;;;;;;;2.47;0.60;;;;;;;8.64;100.00;99804.06;4910488;29;20059;-84
2023/12/26 06:19:00;;;;;;;4.18;0.63;;;;;;;8.65;100.00;99805.78;4899281;29;20078;-84
2023/12/26 06:21:30;;;;;;;6.50;0.75;;;;;;;8.75;100.00;99817.81;4930286;29;20035;-84
2023/12/26 06:23:56;;;;;;;2.53;0.68;;;;;;;8.78;100.00;99816.00;4899234;29;20064;-84
2023/12/26 06:26:23;;;;;;;1.88;0.30;;;;;;;8.86;100.00;99810.66;4899514;29;20106;-83
2023/12/26 06:28:49;;;;;;;2.10;0.40;;;;;;;8.90;100.00;99816.72;4900718;29;20048;-84
2023/12/26 06:31:16;;;;;;;1.08;0.40;;;;;;;8.91;100.00;99821.91;4901292;29;20576;-82
2023/12/26 06:33:43;;;;;;;0.65;0.30;;;;;;;8.93;100.00;99827.13;4900472;29;20164;-84
2023/12/26 06:36:09;;;;;;;3.00;0.80;;;;;;;8.88;100.00;99827.19;4909450;29;20047;-83
2023/12/26 06:38:36;;;;;;;3.38;0.40;;;;;;;8.86;100.00;99820.25;4913044;29;20056;-84
2023/12/26 06:41:04;;;;;;;1.52;0.35;;;;;;;8.84;100.00;99838.56;4899321;29;20458;-84
2023/12/26 06:43:33;;;;;;;2.42;0.55;;;;;;;8.86;100.00;99844.59;4908820;29;20070;-84
2023/12/26 06:46:06;;;;;;;5.93;1.02;;;;;;;8.89;100.00;99852.41;4900896;29;20658;-85
2023/12/26 06:48:33;;;;;;;2.10;0.60;;;;;;;8.86;100.00;99851.56;4914423;29;20745;-84
2023/12/26 06:50:59;;;;;;;1.50;0.35;;;;;;;8.89;100.00;99862.84;4932306;29;20449;-84
2023/12/26 06:53:26;;;;;;;1.33;0.20;;;;;;;8.92;100.00;99846.28;4912903;29;20506;-85
2023/12/26 06:55:54;;;;;;;1.60;0.52;;;;;;;8.92;100.00;99875.84;4929135;29;20048;-85
2023/12/26 06:58:20;;;;;;;1.65;0.47;;;;;;;8.91;100.00;99874.09;4913021;29;20051;-84
2023/12/26 07:00:47;;;;;;;1.95;0.55;;;;;;;8.84;100.00;99874.22;4930363;29;20051;-83
2023/12/26 07:03:13;;;;;;;0.52;0.25;;;;;;;8.86;100.00;99886.34;4915452;29;20047;-84
2023/12/26 07:05:40;;;;;;;2.30;0.45;;;;;;;8.77;100.00;99886.50;4892238;29;20106;-84
2023/12/26 07:08:07;;;;;;;1.15;0.40;;;;;;;8.69;100.00;99907.47;4902799;29;20075;-83
2023/12/26 07:10:33;;;;;;;2.92;0.50;;;;;;;8.57;100.00;99916.31;4898760;29;20124;-84
2023/12/26 07:13:01;;;;;;;3.45;0.80;;;;;;;8.46;100.00;99920.81;4898603;29;20067;-83
2023/12/26 07:15:28;;;;;;;2.90;0.40;;;;;;;8.32;100.00;99918.34;4930083;29;20103;-83
2023/12/26 07:17:55;;;;;;;1.70;0.63;;;;;;;8.27;100.00;99935.78;4912050;29;20390;-84
2023/12/26 07:20:21;;;;;;;2.20;0.68;;;;;;;8.22;100.00;99933.19;4894175;29;20054;-85
2023/12/26 07:22:48;;;;;;;1.80;0.55;;;;;;;8.18;100.00;99934.13;4900777;29;20051;-85
2023/12/26 07:25:13;;;;;;;8.68;1.80;;;;;;;8.11;100.00;99943.75;4907149;29;20576;-86
2023/12/26 07:27:40;;;;;;;3.40;0.60;;;;;;;8.05;100.00;99946.41;4914266;29;20052;-83
2023/12/26 07:30:08;;;;;;;5.57;0.60;;;;;;;8.07;100.00;99952.50;4929637;29;20051;-83
2023/12/26 07:32:35;;;;;;;4.63;0.93;;;;;;;8.03;100.00;99966.44;4913852;29;20048;-83
2023/12/26 07:35:01;;;;;;;4.68;0.68;;;;;;;7.95;100.00;99973.44;4913955;29;20043;-85
2023/12/26 07:37:28;;;;;;;4.15;0.70;;;;;;;7.91;100.00;99980.44;4922396;29;20048;-85
2023/12/26 07:39:55;;;;;;;3.30;1.63;;;;;;;7.88;100.00;99980.47;4902115;29;20497;-84
2023/12/26 07:42:25;;;;;;;5.57;1.05;;;;;;;7.83;100.00;99997.88;4915342;29;20064;-85
2023/12/26 07:44:52;;;;;;;3.03;0.70;;;;;;;7.80;100.00;99997.91;4899374;29;20143;-86
2023/12/26 07:47:18;;;;;;;7.13;1.33;;;;;;;7.76;100.00;100002.28;4898322;29;20052;-84
2023/12/26 07:49:47;;;;;;;6.47;1.15;;;;;;;7.73;100.00;100011.84;4907992;29;20052;-85
2023/12/26 07:52:14;;;;;;;7.70;0.90;;;;;;;7.74;100.00;100013.59;4923320;29;20044;-83
2023/12/26 07:54:42;;;;;;;4.53;1.40;;;;;;;7.72;100.00;100025.78;4918535;29;20043;-86
2023/12/26 07:57:09;;;;;;;8.05;1.80;;;;;;;7.69;100.00;100036.19;4920579;29;20051;-86
2023/12/26 07:59:36;;;;;;;8.45;1.50;;;;;;;7.66;100.00;100034.47;4905498;29;20063;-84
2023/12/26 08:02:03;;;;;;;8.65;1.27;;;;;;;7.64;100.00;100033.66;4896414;29;20108;-84
2023/12/26 08:04:29;;;;;;;5.63;1.45;;;;;;;7.59;100.00;100043.22;4923296;29;20110;-83
2023/12/26 08:06:56;;;;;;;2.58;1.00;;;;;;;7.60;100.00;100042.31;4911683;29;20074;-85
2023/12/26 08:09:26;;;;;;;2.40;0.90;;;;;;;7.62;100.00;100051.00;4920676;29;20054;-84
2023/12/26 08:11:54;;;;;;;2.20;0.80;;;;;;;7.62;100.00;100053.63;4913028;29;20317;-85
2023/12/26 08:14:21;;;;;;;4.32;1.63;;;;;;;7.64;100.00;100058.81;4915068;29;20083;-83
2023/12/26 08:16:53;;;;;;;6.32;0.90;;;;;;;7.65;100.00;100069.22;4901931;29;20074;-85
2023/12/26 08:19:20;;;;;;;15.93;2.65;;;;;;;7.65;100.00;100065.75;4928131;29;20051;-84
2023/12/26 08:21:46;;;;;;;2.42;0.77;;;;;;;7.65;100.00;100071.81;4910866;29;20505;-83
2023/12/26 08:24:18;;;;;;;6.93;1.90;;;;;;;7.62;100.00;100079.66;4900755;29;20054;-85
2023/12/26 08:26:45;;;;;;;8.75;1.20;;;;;;;7.62;100.00;100082.28;4924919;29;20044;-84
2023/12/26 08:29:11;;;;;;;5.50;1.10;;;;;;;7.66;100.00;100088.34;4932957;29;20050;-83
2023/12/26 08:31:42;;;;;;;3.65;0.82;;;;;;;7.68;100.00;100097.00;4913538;29;20679;-85
2023/12/26 08:34:08;;;;;;;3.78;1.80;;;;;;;7.72;100.00;100091.75;4904928;29;20085;-85
2023/12/26 08:36:35;;;;;;;2.10;0.77;;;;;;;7.74;100.00;100091.75;4935115;29;20079;-84
2023/12/26 08:39:02;;;;;;;3.47;1.67;;;;;;;7.77;100.00;100096.97;4910904;29;20052;-83
2023/12/26 08:41:28;;;;;;;5.35;1.48;;;;;;;7.76;100.00;100096.06;4902511;29;20048;-85
2023/12/26 08:43:55;;;;;;;3.85;0.55;;;;;;;7.83;100.00;100104.72;4920971;29;20497;-84
2023/12/26 08:46:21;;;;;;;4.63;0.85;;;;;;;7.92;100.00;100095.97;4918816;29;20054;-85
2023/12/26 08:48:49;;;;;;;8.00;1.23;;;;;;;7.95;100.00;100095.94;4928503;29;20444;-83
2023/12/26 08:51:19;;;;;;;10.73;1.10;;;;;;;7.94;100.00;100102.91;4924307;29;20095;-85
2023/12/26 08:53:47;;;;;;;5.38;0.90;;;;;;;8.04;100.00;100103.69;4934960;29;20036;-85
2023/12/26 08:56:14;;;;;;;3.40;1.08;;;;;;;8.13;100.00;100110.59;4925883;29;20051;-85
2023/12/26 08:58:43;;;;;;;3.00;0.93;;;;;;;8.19;100.00;100120.13;4919130;29;20825;-85
2023/12/26 09:01:10;;;;;;;1.52;1.02;;;;;;;8.20;100.00;100127.03;4911417;29;20138;-84
2023/12/26 09:03:38;;;;;;;4.05;0.82;;;;;;;8.28;100.00;100130.47;4910037;29;20385;-85
2023/12/26 09:06:05;;;;;;;2.47;0.90;;;;;;;8.40;100.00;100132.13;4922812;29;20043;-83
2023/12/26 09:08:33;;;;;;;3.42;0.95;;;;;;;8.38;100.00;100133.84;4911225;29;20043;-84
2023/12/26 09:11:00;;;;;;;4.05;1.00;;;;;;;8.37;100.00;100129.50;4911427;29;20051;-84
2023/12/26 09:13:26;;;;;;;9.20;1.25;;;;;;;8.38;100.00;100129.53;4924394;29;20043;-85
2023/12/26 09:15:53;;;;;;;9.02;1.50;;;;;;;8.38;100.00;100137.34;4922533;29;20059;-86
2023/12/26 09:18:22;;;;;;;3.05;0.70;;;;;;;8.44;100.00;100144.25;4905961;29;20048;-85
2023/12/26 09:20:51;;;;;;;6.22;0.70;;;;;;;8.45;100.00;100153.81;4910379;29;20461;-84
2023/12/26 09:23:18;;;;;;;4.35;0.77;;;;;;;8.52;100.00;100155.50;4923820;29;20055;-85
2023/12/26 09:25:45;;;;;;;3.75;0.70;;;;;;;8.58;100.00;100163.28;4934390;29;20059;-85
2023/12/26 09:28:13;;;;;;;5.05;0.88;;;;;;;8.73;100.00;100169.25;4917482;29;20047;-82
2023/12/26 09:30:39;;;;;;;5.68;2.15;;;;;;;8.74;100.00;100170.97;4915792;29;20072;-85
2023/12/26 09:33:06;;;;;;;7.80;0.93;;;;;;;8.88;100.00;100170.84;4909380;29;20047;-84
2023/12/26 09:35:32;;;;;;;4.15;0.80;;;;;;;8.91;100.00;100170.81;4908209;29;20119;-84
2023/12/26 09:37:59;;;;;;;10.65;1.30;;;;;;;8.98;100.00;100180.31;4918449;29;20040;-82
2023/12/26 09:40:26;;;;;;;1.25;1.05;;;;;;;8.94;100.00;100169.06;4933131;29;20062;-85
2023/12/26 09:42:59;;;;;;;5.53;0.60;;;;;;;9.02;100.00;100175.91;4918388;29;20058;-85
2023/12/26 09:45:27;;;;;;;6.25;1.65;;;;;;;9.10;100.00;100176.72;4917922;29;20052;-84
2023/12/26 09:47:54;;;;;;;2.50;0.70;;;;;;;9.18;100.00;100194.94;4921477;29;20052;-84
2023/12/26 09:50:22;;;;;;;3.08;0.85;;;;;;;9.23;100.00;100194.00;4896035;29;20048;-84
2023/12/26 09:52:53;;;;;;;7.78;1.73;;;;;;;9.16;100.00;100200.13;4909126;29;20058;-85
2023/12/26 09:55:21;;;;;;;3.53;0.90;;;;;;;9.12;100.00;100189.75;4903539;29;20104;-84
2023/12/26 09:57:47;;;;;;;10.77;1.42;;;;;;;9.10;100.00;100210.69;4915217;29;20052;-84
2023/12/26 10:00:14;;;;;;;2.90;1.00;;;;;;;9.09;100.00;100215.00;4898617;29;20501;-83
2023/12/26 10:02:43;;;;;;;2.55;0.77;;;;;;;9.03;100.00;100209.84;4911901;29;20048;-84
2023/12/26 10:05:10;;;;;;;6.28;1.02;;;;;;;9.15;100.00;100208.88;4910218;29;20052;-83
2023/12/26 10:07:37;;;;;;;2.85;1.17;;;;;;;9.15;100.00;100203.66;4898012;29;20052;-83
2023/12/26 10:10:05;;;;;;;4.78;1.02;;;;;;;9.19;100.00;100204.47;4900434;29;20100;-85
2023/12/26 10:12:34;;;;;;;1.40;1.15;;;;;;;9.19;100.00;100207.06;4913492;29;20040;-86
2023/12/26 10:15:04;;;;;;;3.65;1.48;;;;;;;9.27;100.00;100211.34;4908911;29;20044;-85
2023/12/26 10:17:32;;;;;;;8.30;1.02;;;;;;;9.40;100.00;100226.91;4914667;29;20048;-84
2023/12/26 10:20:03;;;;;;;5.03;0.75;;;;;;;9.53;100.00;100233.72;4917139;29;20611;-85
2023/12/26 10:22:31;;;;;;;2.25;0.73;;;;;;;9.42;99.81;100223.38;4895937;29;20051;-84
2023/12/26 10:25:00;;;;;;;5.55;0.88;;;;;;;9.55;97.12;100229.31;4915702;29;20056;-85
2023/12/26 10:27:30;;;;;;;5.68;1.20;;;;;;;9.73;96.57;100237.84;4921928;29;20071;-84
2023/12/26 10:29:57;;;;;;;4.07;1.20;;;;;;;9.74;94.47;100250.88;4910809;29;20056;-84
2023/12/26 10:32:27;;;;;;;5.20;1.05;;;;;;;9.69;92.96;100252.69;4913202;29;20048;-84
2023/12/26 10:35:19;;;;;;;4.53;0.98;;;;;;;9.56;91.13;100251.09;4916666;29;20047;-83
2023/12/26 10:37:46;;;;;;;5.00;2.47;;;;;;;9.57;91.11;100258.06;4900535;29;20044;-85
2023/12/26 10:40:14;;;;;;;7.20;0.77;;;;;;;9.54;91.93;100255.47;4900400;29;21065;-84
2023/12/26 10:42:40;;;;;;;3.35;1.23;;;;;;;9.58;91.67;100244.97;4904601;29;20486;-85
2023/12/26 10:45:10;;;;;;;6.90;2.08;;;;;;;9.51;91.09;100226.78;4898889;29;20057;-84
2023/12/26 10:47:44;;;;;;;6.55;1.02;;;;;;;9.72;89.89;100251.78;4885098;29;20201;-84
2023/12/26 10:50:11;;;;;;;3.33;0.82;;;;;;;9.82;90.00;100257.78;4914225;29;20059;-83
2023/12/26 10:52:52;;;;;;;4.43;1.02;;;;;;;9.92;89.36;100256.75;4898133;29;20461;-84
2023/12/26 10:55:22;;;;;;;3.03;0.68;;;;;;;10.03;87.20;100259.25;4920176;29;20079;-85
2023/12/26 10:57:49;;;;;;;1.77;0.80;;;;;;;10.04;86.79;100248.78;4914863;29;20091;-85
2023/12/26 11:00:16;;;;;;;4.78;0.90;;;;;;;10.08;85.54;100273.13;4915480;29;20044;-82
2023/12/26 11:02:42;;;;;;;3.00;0.70;;;;;;;9.97;85.76;100275.00;4927770;29;20047;-84
2023/12/26 11:05:08;;;;;;;3.28;1.73;;;;;;;10.14;86.48;100280.88;4913407;29;20139;-84
2023/12/26 11:07:35;;;;;;;5.90;1.10;;;;;;;10.11;85.29;100275.69;4929271;29;20072;-83
2023/12/26 11:10:03;;;;;;;4.72;0.93;;;;;;;9.94;85.63;100279.38;4897502;29;20063;-84
2023/12/26 11:12:31;;;;;;;4.60;1.02;;;;;;;9.97;85.71;100296.78;4895284;29;20044;-85
2023/12/26 11:15:05;;;;;;;7.03;0.98;;;;;;;10.05;85.23;100288.84;4894857;29;20048;-85
2023/12/26 11:17:33;;;;;;;6.95;1.00;;;;;;;9.89;84.04;100303.88;4913557;29;20036;-84
2023/12/26 11:20:02;;;;;;;4.45;1.00;;;;;;;9.84;83.87;100295.22;4904614;29;20488;-84
2023/12/26 11:22:28;;;;;;;5.60;0.90;;;;;;;9.84;83.66;100303.94;4914307;29;20036;-86
2023/12/26 11:24:54;;;;;;;10.35;1.48;;;;;;;9.81;81.35;100303.94;4912255;29;20091;-85
2023/12/26 11:27:20;;;;;;;5.40;0.90;;;;;;;9.70;81.05;100304.09;4897968;29;20801;-84
2023/12/26 11:29:47;;;;;;;2.08;0.60;;;;;;;9.62;81.07;100311.16;4899322;29;20059;-84
2023/12/26 11:32:15;;;;;;;3.20;0.70;;;;;;;9.60;80.59;100313.75;4914576;29;20047;-82